Ljungbyhed, Ljungbyhed, SWE-AFB

ESDA · Skåne, Schweden

METAR-Geschichte ESDA · Ljungbyhed, Ljungbyhed, SWE-AFB

Unten siehst du die METARs der letzten paar Tage. Wähle ein Jahr, um ältere METARs ab dem Jahr 2007 zu durchsuchen.

15. Juli 2024

Uhrzeit Code Wetter Temp. Sichtweite Wolkendecke Wind METAR/SPECI
03:20
V
14 °C 10 km+ 7.500 ft 100° 100° 6 kt METAR ESTL 150120Z AUTO 10006KT 9999 BKN075/// 14/14 Q1012
02:50
V
14 °C 10 km+ 8.000 ft 100° 100° 5 kt METAR ESTL 150050Z AUTO 10005KT 9999 BKN080/// BKN097/// 14/13 Q1012
02:20
V
14 °C 10 km+ 8.000 ft 110° 110° 5 kt METAR ESTL 150020Z AUTO 11005KT 9999 BKN080/// 14/12 Q1012
01:50
V
13 °C 10 km+ - 110° 110° 6 kt METAR ESTL 142350Z AUTO 11006KT 9999 SCT087/// 13/12 Q1012
01:20
V
14 °C 10 km+ 8.900 ft 110° 110° 5 kt METAR ESTL 142320Z AUTO 11005KT 9999 BKN089/// 14/12 Q1012
00:50
V
14 °C 10 km+ - 100° 100° 4 kt METAR ESTL 142250Z AUTO 10004KT 080V140 9999 SCT078/// 14/12 Q1012
00:20
V
14 °C 10 km+ - 170° 170° 7 kt METAR ESTL 142220Z AUTO 17007KT 9999 NCD 14/11 Q1012

14. Juli 2024

Uhrzeit Code Wetter Temp. Sichtweite Wolkendecke Wind METAR/SPECI
23:50
V
15 °C 10 km+ - 180° 180° 7 kt METAR ESTL 142150Z AUTO 18007KT 9999 FEW055/// 15/12 Q1012
23:20
V
15 °C 10 km+ - 140° 140° 6 kt METAR ESTL 142120Z AUTO 14006KT 9999 FEW059/// SCT098/// 15/12 Q1012
22:50
V
15 °C 10 km+ - 140° 140° 5 kt METAR ESTL 142050Z AUTO 14005KT 9999 NCD 15/11 Q1012
22:20
V
16 °C 10 km+ - 160° 160° 5 kt METAR ESTL 142020Z AUTO 16005KT 9999 FEW090/// 16/12 Q1012
21:50
V
16 °C 10 km+ - 170° 170° 5 kt METAR ESTL 141950Z AUTO 17005KT 9999 NCD 16/12 Q1012
21:20
V
17 °C 10 km+ - 190° 190° 6 kt METAR ESTL 141920Z AUTO 19006KT 9999 NCD 17/12 Q1012
20:50
V
18 °C 10 km+ - 190° 190° 7 kt METAR ESTL 141850Z AUTO 19007KT 9999 NCD 18/12 Q1012
20:20
V
18 °C 10 km+ - 190° 190° 7 kt METAR ESTL 141820Z AUTO 19007KT 9999 NCD 18/12 Q1012
19:50
V
19 °C 10 km+ - 200° 200° 7 kt METAR ESTL 141750Z AUTO 20007KT 170V240 9999 NCD 19/12 Q1012
19:20
V
19 °C 10 km+ - 210° 210° 8 kt METAR ESTL 141720Z AUTO 21008KT 9999 NCD 19/12 Q1012
18:50
V
20 °C 10 km+ - 200° 200° 8 kt METAR ESTL 141650Z AUTO 20008KT 9999 NCD 20/12 Q1011
18:20
V
19 °C 10 km+ - 190° 190° 8 kt METAR ESTL 141620Z AUTO 19008KT 9999 NCD 19/12 Q1011
17:50
V
20 °C 10 km+ - 200° 200° 9 kt METAR ESTL 141550Z AUTO 20009KT 170V240 9999 FEW058/// 20/12 Q1011
17:20
V
20 °C 10 km+ 4.900 ft 230° 230° 9 kt METAR ESTL 141520Z AUTO 23009KT 190V270 9999 FEW037/// BKN049/// 20/11 Q1011
16:50
V
19 °C 10 km+ 5.200 ft 220° 220° 11 kt METAR ESTL 141450Z AUTO 22011KT 9999 FEW035/// SCT041/// BKN052/// 19/11 Q1011
16:20
V
20 °C 10 km+ - 200° 200° 10 kt METAR ESTL 141420Z AUTO 20010KT 180V240 9999 FEW034/// SCT052/// 20/12 Q1011
15:50
V
20 °C 10 km+ - 200° 200° 11 kt METAR ESTL 141350Z AUTO 20011KT 9999 FEW034/// 20/12 Q1011
15:20
V
21 °C 10 km+ - 210° 210° 8 kt METAR ESTL 141320Z AUTO 21008KT 9999 FEW031/// 21/14 Q1011
14:50
V
20 °C 10 km+ - 210° 210° 10 kt METAR ESTL 141250Z AUTO 21010KT 9999 FEW032/// SCT038/// 20/13 Q1011
14:20
V
20 °C 10 km+ - 220° 220° 11 kt METAR ESTL 141220Z AUTO 22011KT 9999 NCD 20/12 Q1011
13:50
V
19 °C 10 km+ - 210° 210° 11 kt METAR ESTL 141150Z AUTO 21011KT 9999 FEW027/// SCT042/// 19/13 Q1011
13:20
V
20 °C 10 km+ 5.600 ft 210° 210° 10 kt METAR ESTL 141120Z AUTO 21010KT 170V240 9999 FEW027/// BKN056/// 20/14 Q1011
12:50
V
18 °C 10 km+ 3.900 ft 220° 220° 9 kt METAR ESTL 141050Z AUTO 22009KT 190V250 9999 DZ FEW021/// SCT025/// BKN039/// 18/14 Q1011
12:20
V
19 °C 10 km+ 5.700 ft 220° 220° 9 kt METAR ESTL 141020Z AUTO 22009KT 190V250 9999 FEW020/// SCT048/// BKN057/// 19/15 Q1011
11:50
V
17 °C 10 km+ 4.200 ft 220° 220° 8 kt METAR ESTL 140950Z AUTO 22008KT 9999 FEW023/// SCT033/// BKN042/// 17/16 Q1011
11:20
V
17 °C 10 km+ - 240° 240° 6 kt METAR ESTL 140920Z AUTO 24006KT 200V270 9999 FEW012/// SCT043/// 17/16 Q1011 RERA
10:50
V
16 °C 10 km+ - 220° 220° 8 kt METAR ESTL 140850Z AUTO 22008KT 9999 FEW012/// SCT054/// 16/16 Q1010
10:20
V
16 °C 10 km+ 4.100 ft 220° 220° 9 kt METAR ESTL 140820Z AUTO 22009KT 9999 -RA FEW013/// SCT020/// BKN041/// 16/16 Q1011
09:50
V
17 °C 10 km+ 4.600 ft 220° 220° 6 kt METAR ESTL 140750Z AUTO 22006KT 9999 DZ FEW015/// SCT041/// BKN046/// 17/16 Q1010 REDZ
09:20
V
17 °C 10 km+ 4.100 ft 220° 220° 6 kt METAR ESTL 140720Z AUTO 22006KT 190V260 9999 FEW015/// SCT036/// OVC041/// 17/16 Q1010
08:50
V
17 °C 10 km+ 3.900 ft 210° 210° 9 kt METAR ESTL 140650Z AUTO 21009KT 9999 FEW011/// SCT022/// OVC039/// 17/15 Q1010
08:20
V
17 °C 10 km+ - 230° 230° 7 kt METAR ESTL 140620Z AUTO 23007KT 200V260 9999 FEW014/// SCT036/// 17/16 Q1010
07:50
V
17 °C 10 km+ - 230° 230° 8 kt METAR ESTL 140550Z AUTO 23008KT 190V260 9999 FEW008/// 17/16 Q1010
07:20
V
16 °C 10 km+ - 230° 230° 9 kt METAR ESTL 140520Z AUTO 23009KT 190V250 9999 FEW009/// SCT033/// 16/16 Q1010
06:50
V
16 °C 10 km+ 3.300 ft 230° 230° 8 kt METAR ESTL 140450Z AUTO 23008KT 9999 FEW008/// SCT029/// BKN033/// 16/16 Q1010
06:20
M
15 °C 10 km+ 2.400 ft 230° 230° 7 kt METAR ESTL 140420Z AUTO 23007KT 9999 FEW009/// SCT020/// BKN024/// 15/15 Q1010
05:50
M
15 °C 10 km+ 1.900 ft 220° 220° 6 kt METAR ESTL 140350Z AUTO 22006KT 9999 FEW008/// BKN019/// BKN026/// 15/15 Q1010
05:20
M
15 °C 10 km+ 2.000 ft 230° 230° 5 kt METAR ESTL 140320Z AUTO 23005KT 9999 FEW018/// BKN020/// 15/15 Q1009
04:50
M
14 °C 10 km+ 2.100 ft 230° 230° 4 kt METAR ESTL 140250Z AUTO 23004KT 180V260 9999 FEW007/// SCT017/// BKN021/// 14/14 Q1009
04:20
I
14 °C 10 km+ 900 ft 240° 240° 6 kt METAR ESTL 140220Z AUTO 24006KT 9999 FEW008/// BKN009/// 14/14 Q1009
03:50
V
14 °C 10 km+ - 230° 230° 6 kt METAR ESTL 140150Z AUTO 23006KT 190V270 9999 SCT010/// 14/14 Q1009
03:20
V
14 °C 10 km+ - 230° 230° 5 kt METAR ESTL 140120Z AUTO 23005KT 200V270 9999 FEW013/// 14/14 Q1009
02:50
V
15 °C 10 km+ - 240° 240° 7 kt METAR ESTL 140050Z AUTO 24007KT 210V270 9999 NCD 15/15 Q1009
02:20
V
15 °C 10 km+ - 240° 240° 6 kt METAR ESTL 140020Z AUTO 24006KT 9999 NCD 15/15 Q1009
01:50
V
15 °C 10 km+ - 230° 230° 7 kt METAR ESTL 132350Z AUTO 23007KT 9999 NCD 15/15 Q1009
01:20
V
15 °C 10 km+ - 230° 230° 6 kt METAR ESTL 132320Z AUTO 23006KT 9999 NCD 15/15 Q1009
00:50
V
15 °C 10 km+ - 220° 220° 5 kt METAR ESTL 132250Z AUTO 22005KT 9999 FEW049/// 15/15 Q1009
00:20
V
16 °C 10 km+ 4.700 ft 200° 200° 6 kt METAR ESTL 132220Z AUTO 20006KT 9999 BKN047/// 16/16 Q1009

13. Juli 2024

Uhrzeit Code Wetter Temp. Sichtweite Wolkendecke Wind METAR/SPECI
23:50
V
16 °C 10 km+ 4.300 ft 200° 200° 7 kt METAR ESTL 132150Z AUTO 20007KT 9999 BKN043/// 16/16 Q1010
23:20
V
15 °C 10 km+ 4.000 ft 210° 210° 4 kt METAR ESTL 132120Z AUTO 21004KT 170V230 9999 FEW007/// SCT018/// OVC040/// 15/15 Q1010
22:50
V
15 °C 10 km+ 4.100 ft Var Var 3 kt METAR ESTL 132050Z AUTO VRB03KT 9999 FEW027/// BKN041/// OVC059/// 15/15 Q1010
22:20
V
15 °C 10 km+ 3.700 ft 230° 230° 3 kt METAR ESTL 132020Z AUTO 23003KT 9999 FEW032/// BKN037/// OVC052/// 15/15 Q1010
21:50
V
15 °C 10 km+ 3.800 ft 250° 250° 4 kt METAR ESTL 131950Z AUTO 25004KT 220V280 9999 FEW007/// SCT011/// BKN038/// 15/15 Q1010 RERA
21:20
M
15 °C 10 km+ 1.400 ft 360° 360° 0 kt METAR ESTL 131920Z AUTO 00000KT 9999 FEW007/// SCT009/// BKN014/// 15/15 Q1009 REDZ
20:50
I
15 °C 7 km 700 ft 360° 360° 0 kt METAR ESTL 131850Z AUTO 00000KT 7000 DZ FEW001/// SCT005/// BKN007/// 15/15 Q1009 REDZ
20:20
L
15 °C 4,3 km 400 ft 360° 360° 0 kt METAR ESTL 131820Z AUTO 00000KT 4300 DZ SCT001/// OVC004/// 15/15 Q1009
19:50
L
15 °C 3,7 km 100 ft 360° 360° 0 kt METAR ESTL 131750Z AUTO 00000KT 3700 +DZ BKN001/// OVC003/// 15/15 Q1009
19:20
I
15 °C 4,4 km 1.100 ft 360° 360° 0 kt METAR ESTL 131720Z AUTO 00000KT 4400 -RA FEW001/// SCT009/// BKN011/// 15/15 Q1009 REDZ RERA
18:50
I
15 °C 4,4 km - 360° 360° 0 kt METAR ESTL 131650Z AUTO 00000KT 4400 +DZ FEW010/// SCT013/// 15/15 Q1009
18:20
M
15 °C 6 km - 360° 360° 0 kt METAR ESTL 131620Z AUTO 00000KT 6000 RA FEW014/// 15/15 Q1009
17:50
M
15 °C 6 km - 360° 360° 0 kt METAR ESTL 131550Z AUTO 00000KT 6000 RA FEW010/// SCT048/// 15/15 Q1009
17:20
V
15 °C 10 km+ 3.800 ft 360° 360° 0 kt METAR ESTL 131520Z AUTO 00000KT 9999 -RA FEW008/// BKN038/// 15/15 Q1009
16:50
V
16 °C 10 km+ 5.500 ft 220° 220° 2 kt METAR ESTL 131450Z AUTO 22002KT 9999 -RA SCT006/// BKN055/// 16/16 Q1010 REDZ
16:20
V
16 °C 10 km+ - 360° 360° 0 kt METAR ESTL 131420Z AUTO 00000KT 9999 DZ NCD 16/16 Q1009
15:50
V
15 °C 8 km - Var Var 3 kt METAR ESTL 131350Z AUTO VRB03KT 8000 +RA FEW003/// 15/15 Q1009
15:20
V
16 °C 9 km - 350° 350° 3 kt METAR ESTL 131320Z AUTO 35003KT 9000 RA FEW003/// 16/16 Q1009
14:50
V
16 °C 8 km - 360° 360° 0 kt METAR ESTL 131250Z AUTO 00000KT 8000 RA FEW006/// 16/16 Q1010
14:20
V
16 °C 10 km+ - 360° 360° 0 kt METAR ESTL 131220Z AUTO 00000KT 9999 -RA FEW023/// 16/16 Q1010
13:50
V
16 °C 10 km+ - 360° 360° 0 kt METAR ESTL 131150Z AUTO 00000KT 9999 -RA FEW007/// SCT049/// 16/16 Q1010
13:20
V
16 °C 10 km+ - 360° 360° 0 kt METAR ESTL 131120Z AUTO 00000KT 9999 -RA FEW059/// 16/16 Q1010 REDZ
12:50
U
16 °C 0 m 5.700 ft 150° 150° 1 kt METAR ESTL 131050Z AUTO 15001KT //// R29L///// -DZ FEW012/// SCT017/// BKN057/// 16/16 Q1009
12:20
U
16 °C 0 m - 130° 130° 6 kt METAR ESTL 131020Z AUTO 13006KT //// R29L///// FEW019/// 16/16 Q1009
11:50
U
16 °C 0 m - 120° 120° 4 kt METAR ESTL 130950Z AUTO 12004KT //// R29L///// NCD 16/16 Q1009
11:20
U
16 °C 0 m - 100° 100° 5 kt METAR ESTL 130920Z AUTO 10005KT //// R29L///// NCD 16/16 Q1009
10:50
U
16 °C 0 m - 100° 100° 7 kt METAR ESTL 130850Z AUTO 10007KT //// R29L///// NCD 16/16 Q1009
10:20
U
16 °C 0 m - 090° 090° 7 kt METAR ESTL 130820Z AUTO 09007KT //// R29L///// NCD 16/16 Q1009
09:50
U
16 °C 0 m - 080° 080° 4 kt METAR ESTL 130750Z AUTO 08004KT //// R29L///// NCD 16/16 Q1009
09:20
U
16 °C 0 m - 090° 090° 4 kt METAR ESTL 130720Z AUTO 09004KT //// R29L///// NCD 16/16 Q1009
08:50
U
16 °C 0 m - 100° 100° 6 kt METAR ESTL 130650Z AUTO 10006KT //// R29L///// NCD 16/16 Q1009
08:20
U
17 °C 0 m - 100° 100° 6 kt METAR ESTL 130620Z AUTO 10006KT //// R29L///// FEW083/// 17/15 Q1009
07:50
U
17 °C 0 m - 120° 120° 6 kt METAR ESTL 130550Z AUTO 12006KT //// R29L///// FEW084/// 17/14 Q1009
07:20
U
17 °C 0 m - 110° 110° 6 kt METAR ESTL 130520Z AUTO 11006KT //// R29L///// FEW092/// 17/14 Q1009
06:50
U
17 °C 0 m - 100° 100° 5 kt METAR ESTL 130450Z AUTO 10005KT //// R29L///// FEW100/// 17/14 Q1009
06:20
U
17 °C 0 m - 110° 110° 5 kt METAR ESTL 130420Z AUTO 11005KT //// R29L///// NCD 17/14 Q1009
05:50
U
17 °C 0 m - 080° 080° 7 kt METAR ESTL 130350Z AUTO 08007KT //// R29L///// NCD 17/14 Q1009
05:20
U
18 °C 0 m - 100° 100° 5 kt METAR ESTL 130320Z AUTO 10005KT //// R29L///// NCD 18/14 Q1009
04:50
U
17 °C 0 m - 120° 120° 4 kt METAR ESTL 130250Z AUTO 12004KT //// R29L///// FEW110/// 17/14 Q1009
04:20
U
18 °C 0 m 10.000 ft 110° 110° 6 kt METAR ESTL 130220Z AUTO 11006KT //// R29L///// BKN100/// 18/14 Q1009
03:50
U
18 °C 0 m 9.500 ft 080° 080° 8 kt METAR ESTL 130150Z AUTO 08008KT //// R29L///// FEW075/// BKN095/// 18/14 Q1009
03:20
U
18 °C 0 m 7.200 ft 070° 070° 6 kt METAR ESTL 130120Z AUTO 07006KT //// R29L///// BKN072/// BKN100/// 18/14 Q1010
02:50
U
18 °C 0 m 10.000 ft 110° 110° 5 kt METAR ESTL 130050Z AUTO 11005KT //// R29L///// BKN100/// 18/14 Q1010
02:20
U
18 °C 0 m - 110° 110° 7 kt METAR ESTL 130020Z AUTO 11007KT //// R29L///// FEW087/// SCT100/// 18/14 Q1010
01:50
U
18 °C 0 m 7.500 ft 110° 110° 8 kt METAR ESTL 122350Z AUTO 11008KT //// R29L///// BKN075/// 18/14 Q1011
01:20
U
18 °C 0 m 7.300 ft 120° 120° 8 kt METAR ESTL 122320Z AUTO 12008KT //// R29L///// BKN073/// 18/13 Q1011
00:50
U
18 °C 0 m 7.300 ft 110° 110° 7 kt METAR ESTL 122250Z AUTO 11007KT //// R29L///// BKN073/// 18/13 Q1011
00:20
U
18 °C 0 m 8.600 ft 120° 120° 7 kt METAR ESTL 122220Z AUTO 12007KT //// R29L///// FEW072/// BKN086/// 18/14 Q1011

12. Juli 2024

Uhrzeit Code Wetter Temp. Sichtweite Wolkendecke Wind METAR/SPECI
23:50
U
18 °C 0 m 7.000 ft 120° 120° 5 kt METAR ESTL 122150Z AUTO 12005KT //// R29L///// BKN070/// 18/14 Q1012
23:20
U
18 °C 0 m - 080° 080° 6 kt METAR ESTL 122120Z AUTO 08006KT //// R29L///// SCT085/// 18/14 Q1012
22:50
U
18 °C 0 m - 090° 090° 3 kt METAR ESTL 122050Z AUTO 09003KT //// R29L///// FEW110/// 18/14 Q1012
22:20
U
18 °C 0 m - 090° 090° 3 kt METAR ESTL 122020Z AUTO 09003KT //// R29L///// SCT084/// 18/14 Q1012
21:50
U
18 °C 0 m - 100° 100° 3 kt METAR ESTL 121950Z AUTO 10003KT //// R29L///// FEW083/// 18/14 Q1012
21:20
U
19 °C 0 m - 100° 100° 4 kt METAR ESTL 121920Z AUTO 10004KT //// R29L///// FEW093/// 19/13 Q1012
20:50
U
20 °C 0 m - 090° 090° 5 kt METAR ESTL 121850Z AUTO 09005KT //// R29L///// NCD 20/13 Q1012
20:20
U
21 °C 0 m - 100° 100° 9 kt METAR ESTL 121820Z AUTO 10009KT //// R29L///// NCD 21/13 Q1012
19:50
V
22 °C 10 km+ - 110° 110° 8 kt METAR ESTL 121750Z AUTO 11008KT 9999 NCD 22/14 Q1012
19:20
V
22 °C 10 km+ - 120° 120° 7 kt METAR ESTL 121720Z AUTO 12007KT 9999 NCD 22/15 Q1013
18:50
V
23 °C 10 km+ - 150° 150° 6 kt METAR ESTL 121650Z AUTO 15006KT 9999 NCD 23/15 Q1013
18:20
V
23 °C 10 km+ - 140° 140° 8 kt METAR ESTL 121620Z AUTO 14008KT 9999 NCD 23/14 Q1013
17:50
V
23 °C 10 km+ - 130° 130° 9 kt METAR ESTL 121550Z AUTO 13009KT 9999 NCD 23/14 Q1013
17:20
V
24 °C 10 km+ - 140° 140° 9 kt METAR ESTL 121520Z AUTO 14009KT 110V170 9999 NCD 24/14 Q1014
16:50
V
24 °C 10 km+ - 140° 140° 8 kt METAR ESTL 121450Z AUTO 14008KT 9999 FEW048/// 24/13 Q1014
16:20
V
23 °C 10 km+ - 110° 110° 6 kt METAR ESTL 121420Z AUTO 11006KT 9999 FEW044/// 23/15 Q1014
15:50
V
23 °C 10 km+ - 160° 160° 3 kt METAR ESTL 121350Z AUTO 16003KT 110V200 9999 FEW033/// SCT068/// 23/15 Q1014
15:20
V
22 °C 10 km+ - 170° 170° 4 kt METAR ESTL 121320Z AUTO 17004KT 070V210 9999 FEW031/// 22/15 Q1014
14:50
V
23 °C 10 km+ 6.300 ft 200° 200° 4 kt METAR ESTL 121250Z AUTO 20004KT 9999 SCT037/// BKN063/// 23/16 Q1014
14:20
V
23 °C 10 km+ - Var Var 2 kt METAR ESTL 121220Z AUTO VRB02KT 9999 FEW048/// 23/15 Q1015
13:50
V
22 °C 10 km+ - 160° 160° 3 kt METAR ESTL 121150Z AUTO 16003KT 050V180 9999 FEW045/// SCT071/// 22/15 Q1015
13:20
V
22 °C 10 km+ - Var Var 3 kt METAR ESTL 121120Z AUTO VRB03KT 9999 SCT045/// 22/16 Q1015
12:50
V
21 °C 10 km+ 5.100 ft Var Var 2 kt METAR ESTL 121050Z AUTO VRB02KT 9999 FEW022/// BKN051/// 21/16 Q1015
12:20
V
21 °C 10 km+ - Var Var 3 kt METAR ESTL 121020Z AUTO VRB03KT 9999 FEW023/// SCT072/// 21/15 Q1015
11:50
V
21 °C 10 km+ - Var Var 2 kt METAR ESTL 120950Z AUTO VRB02KT 9999 SCT069/// 21/15 Q1015
11:20
V
20 °C 10 km+ 7.200 ft Var Var 2 kt METAR ESTL 120920Z AUTO VRB02KT 9999 FEW020/// BKN072/// 20/15 Q1015
10:50
V
22 °C 10 km+ - Var Var 2 kt METAR ESTL 120850Z AUTO VRB02KT 9999 NCD 22/16 Q1015
10:20
V
19 °C 10 km+ - Var Var 2 kt METAR ESTL 120820Z AUTO VRB02KT 9999 FEW050/// 19/15 Q1016
09:50
V
18 °C 10 km+ - Var Var 1 kt METAR ESTL 120750Z AUTO VRB01KT 9999 FEW007/// SCT068/// 18/17 Q1016
09:20
V
17 °C 10 km+ - 360° 360° 0 kt METAR ESTL 120720Z AUTO 00000KT 9999 SCT060/// 17/17 Q1016
08:50
V
17 °C 10 km+ - 360° 360° 0 kt METAR ESTL 120650Z AUTO 00000KT 9999 FEW004/// SCT071/// 17/17 Q1016
08:20
V
17 °C 10 km+ - 360° 360° 0 kt METAR ESTL 120620Z AUTO 00000KT 9999 SCT069/// 17/17 Q1016
07:50
V
16 °C 10 km+ - 100° 100° 2 kt METAR ESTL 120550Z AUTO 10002KT 9999 FEW077/// 16/16 Q1016
Eine Änderung melden